Time;durP1;ratioP1;P1;durP2;ratioP2;P2;SDS_P1;SDS_P2;PMS_P1;PMS_P2;Temp;Humidity;BMP_temperature;BMP_pressure;BME280_temperature;BME280_humidity;BME280_pressure;Samples;Min_cycle;Max_cycle;Signal;HPM_P1;HPM_P2
2021/09/04 00:01:47;;;;;;;12.30;6.40;;;460.90;1612.80;;;;;;5053666;28;20036;-68
2021/09/04 00:04:13;;;;;;;9.13;6.18;;;460.90;1612.80;;;;;;5053454;28;20465;-68
2021/09/04 00:06:38;;;;;;;10.77;6.45;;;460.90;1638.40;;;;;;5053854;28;20116;-69
2021/09/04 00:09:04;;;;;;;10.05;6.68;;;460.80;1638.40;;;;;;5053286;28;20018;-69
2021/09/04 00:11:31;;;;;;;12.13;6.00;;;460.80;1664.00;;;;;;5053369;28;20049;-69
2021/09/04 00:13:57;;;;;;;8.00;5.65;;;460.80;1664.00;;;;;;5052061;28;20036;-69
2021/09/04 00:16:23;;;;;;;13.40;6.47;;;460.80;1664.00;;;;;;5053769;28;20037;-68
2021/09/04 00:18:49;;;;;;;9.30;6.05;;;436.10;1638.40;;;;;;5053215;28;20114;-69
2021/09/04 00:21:14;;;;;;;10.27;6.63;;;436.00;1664.00;;;;;;5053441;28;20022;-69
2021/09/04 00:23:40;;;;;;;10.70;6.78;;;436.00;1664.00;;;;;;5053488;28;20032;-69
2021/09/04 00:26:06;;;;;;;10.75;5.80;;;435.90;1664.00;;;;;;5053132;28;20021;-68
2021/09/04 00:28:32;;;;;;;11.10;6.45;;;435.90;1664.00;;;;;;5053267;28;20324;-69
2021/09/04 00:30:57;;;;;;;8.85;5.90;;;435.90;1664.00;;;;;;5053377;28;20025;-67
2021/09/04 00:33:23;;;;;;;7.75;6.28;;;435.90;1664.00;;;;;;5053319;28;20041;-68
2021/09/04 00:35:49;;;;;;;9.57;5.93;;;435.80;1689.60;;;;;;5053260;28;20040;-69
2021/09/04 00:38:14;;;;;;;14.10;6.72;;;435.80;1689.60;;;;;;5053162;28;20025;-68
2021/09/04 00:40:40;;;;;;;11.02;7.20;;;435.80;1664.00;;;;;;5053430;28;20100;-68
2021/09/04 00:43:06;;;;;;;10.10;6.85;;;435.70;1664.00;;;;;;5055854;28;20148;-69
2021/09/04 00:45:32;;;;;;;13.57;6.80;;;435.70;1689.60;;;;;;5056950;28;20029;-69
2021/09/04 00:48:00;;;;;;;10.82;6.65;;;435.70;1689.60;;;;;;5056944;28;20032;-69
2021/09/04 00:50:27;;;;;;;12.27;7.78;;;435.70;1689.60;;;;;;5057267;28;20021;-68
2021/09/04 00:52:54;;;;;;;11.15;7.45;;;435.70;1689.60;;;;;;5056921;28;20033;-68
2021/09/04 00:55:20;;;;;;;10.13;6.55;;;435.60;1689.60;;;;;;5056483;28;20053;-69
2021/09/04 00:57:47;;;;;;;12.93;7.57;;;435.60;1689.60;;;;;;5056629;28;20023;-68
2021/09/04 01:00:13;;;;;;;12.38;8.60;;;435.60;1689.60;;;;;;5056809;28;20049;-68
2021/09/04 01:02:48;;;;;;;10.93;7.68;;;435.50;1715.20;;;;;;5057273;28;20025;-68
2021/09/04 01:05:14;;;;;;;13.00;7.13;;;435.40;1715.20;;;;;;5056740;28;20029;-69
2021/09/04 01:07:41;;;;;;;16.27;7.30;;;435.40;1740.80;;;;;;5056482;28;20036;-68
2021/09/04 01:10:07;;;;;;;14.25;6.78;;;435.40;1740.80;;;;;;5056414;28;20024;-68
2021/09/04 01:12:34;;;;;;;9.88;6.82;;;435.40;1740.80;;;;;;5056568;28;20127;-69
2021/09/04 01:14:59;;;;;;;13.93;7.60;;;435.40;1740.80;;;;;;5056406;28;20367;-68
2021/09/04 01:17:25;;;;;;;16.92;7.75;;;435.40;1740.80;;;;;;5056296;28;20082;-68
2021/09/04 01:19:51;;;;;;;11.60;6.85;;;435.40;1740.80;;;;;;5056225;28;20021;-68
2021/09/04 01:22:17;;;;;;;13.15;7.78;;;435.40;1715.20;;;;;;5055373;28;20025;-68
2021/09/04 01:24:48;;;;;;;13.07;8.00;;;435.40;1740.80;;;;;;5056202;28;20028;-68
2021/09/04 01:27:18;;;;;;;14.52;8.07;;;435.30;1740.80;;;;;;5056412;28;20433;-68
2021/09/04 01:29:45;;;;;;;11.02;8.20;;;435.30;1766.40;;;;;;5055017;28;20483;-68
2021/09/04 01:32:11;;;;;;;14.13;8.45;;;435.20;1740.80;;;;;;5056117;28;20030;-68
2021/09/04 01:34:37;;;;;;;14.00;8.32;;;435.30;1766.40;;;;;;5055881;28;20036;-68
2021/09/04 01:37:03;;;;;;;15.13;8.68;;;435.20;1740.80;;;;;;5055899;28;20025;-68
2021/09/04 01:39:29;;;;;;;14.55;8.52;;;435.20;1740.80;;;;;;5056005;28;20051;-67
2021/09/04 01:41:54;;;;;;;14.35;8.98;;;435.20;1766.40;;;;;;5056238;28;20467;-68
2021/09/04 01:44:20;;;;;;;14.32;8.23;;;435.20;1766.40;;;;;;5055897;28;20025;-68
2021/09/04 01:46:46;;;;;;;14.40;8.88;;;410.50;1766.40;;;;;;5054575;28;20402;-68
2021/09/04 01:49:11;;;;;;;14.32;8.98;;;435.20;1766.40;;;;;;5054482;28;20116;-68
2021/09/04 01:51:37;;;;;;;16.88;8.65;;;435.20;1766.40;;;;;;5055812;28;20059;-68
2021/09/04 01:54:03;;;;;;;17.38;9.43;;;410.50;1766.40;;;;;;5053815;28;20033;-69
2021/09/04 01:56:29;;;;;;;15.23;9.73;;;410.50;1766.40;;;;;;5055842;28;20370;-69
2021/09/04 01:58:55;;;;;;;13.70;9.20;;;410.50;1766.40;;;;;;5054269;28;20395;-68
2021/09/04 02:01:20;;;;;;;19.00;10.30;;;410.50;1766.40;;;;;;5053988;28;20131;-67
2021/09/04 02:03:46;;;;;;;17.38;10.25;;;410.40;1766.40;;;;;;5055238;28;20021;-66
2021/09/04 02:06:12;;;;;;;23.80;9.85;;;410.40;1766.40;;;;;;5055507;28;20025;-68
2021/09/04 02:08:37;;;;;;;16.48;9.98;;;410.30;1766.40;;;;;;5055657;28;20483;-68
2021/09/04 02:11:03;;;;;;;18.80;11.40;;;410.30;1792.00;;;;;;5055549;28;20043;-68
2021/09/04 02:13:29;;;;;;;18.63;10.52;;;410.30;1766.40;;;;;;5054022;28;20059;-68
2021/09/04 02:15:55;;;;;;;16.25;11.43;;;410.30;1766.40;;;;;;5055302;28;20037;-68
2021/09/04 02:18:21;;;;;;;16.55;10.52;;;410.20;1792.00;;;;;;5054962;28;20074;-68
2021/09/04 02:20:48;;;;;;;14.90;10.43;;;410.10;1792.00;;;;;;5054764;28;20024;-68
2021/09/04 02:23:14;;;;;;;15.80;9.85;;;410.20;1792.00;;;;;;5055327;28;20367;-68
2021/09/04 02:25:41;;;;;;;19.83;9.80;;;410.10;1792.00;;;;;;5054246;28;20371;-68
2021/09/04 02:28:06;;;;;;;16.52;10.55;;;410.10;1792.00;;;;;;5052931;28;20033;-67
2021/09/04 02:30:32;;;;;;;15.55;9.73;;;410.10;1792.00;;;;;;5054974;28;20120;-68
2021/09/04 02:32:58;;;;;;;16.80;10.70;;;410.10;1792.00;;;;;;5054918;28;20067;-68
2021/09/04 02:35:24;;;;;;;14.68;9.93;;;410.10;1792.00;;;;;;5055066;28;20124;-68
2021/09/04 02:37:50;;;;;;;12.25;9.27;;;410.10;1792.00;;;;;;5054858;28;20025;-67
2021/09/04 02:40:16;;;;;;;18.23;10.68;;;410.10;1792.00;;;;;;5054845;28;20032;-67
2021/09/04 02:42:41;;;;;;;13.55;9.80;;;410.10;1792.00;;;;;;5054791;28;20022;-68
2021/09/04 02:45:08;;;;;;;21.55;9.65;;;410.10;1792.00;;;;;;5054949;28;20163;-68
2021/09/04 02:47:35;;;;;;;18.23;10.65;;;410.10;1792.00;;;;;;5054793;28;20017;-68
2021/09/04 02:50:02;;;;;;;20.40;10.75;;;410.00;1792.00;;;;;;5054442;28;20036;-68
2021/09/04 02:52:27;;;;;;;24.30;12.35;;;410.00;1817.60;;;;;;5054464;28;20013;-68
2021/09/04 02:54:53;;;;;;;20.17;11.38;;;409.90;1817.60;;;;;;5054463;28;20397;-69
2021/09/04 02:57:19;;;;;;;22.40;11.35;;;409.90;1817.60;;;;;;5054819;28;20078;-68
2021/09/04 02:59:44;;;;;;;23.27;10.80;;;409.80;1817.60;;;;;;5054470;28;20087;-67
2021/09/04 03:02:10;;;;;;;16.83;10.23;;;409.80;1817.60;;;;;;5053187;28;20029;-68
2021/09/04 03:04:36;;;;;;;16.40;10.50;;;409.90;1843.20;;;;;;5053721;28;20043;-68
2021/09/04 03:07:02;;;;;;;19.65;9.90;;;409.90;1843.20;;;;;;5054053;28;20053;-68
2021/09/04 03:09:28;;;;;;;19.60;10.38;;;409.80;1817.60;;;;;;5053922;28;20075;-68
2021/09/04 03:11:54;;;;;;;17.42;9.93;;;409.80;1843.20;;;;;;5053533;28;20120;-68
2021/09/04 03:14:20;;;;;;;19.63;9.88;;;409.80;1843.20;;;;;;5054093;28;20127;-67
2021/09/04 03:16:45;;;;;;;18.63;10.15;;;409.80;1843.20;;;;;;5054217;28;20021;-68
2021/09/04 03:19:12;;;;;;;25.17;10.02;;;409.80;1817.60;;;;;;5053842;28;20079;-68
2021/09/04 03:21:38;;;;;;;16.08;9.63;;;409.80;1817.60;;;;;;5053936;28;20086;-68
2021/09/04 03:24:03;;;;;;;22.70;9.15;;;409.80;1843.20;;;;;;5054159;28;20028;-68
2021/09/04 03:26:29;;;;;;;15.88;9.80;;;409.70;1843.20;;;;;;5052609;28;20174;-66
2021/09/04 03:28:55;;;;;;;17.73;9.43;;;409.70;1843.20;;;;;;5054229;28;20048;-68
2021/09/04 03:31:21;;;;;;;15.32;9.23;;;409.70;1843.20;;;;;;5054352;28;20032;-68
2021/09/04 03:33:46;;;;;;;17.48;9.45;;;409.70;1843.20;;;;;;5053854;28;20025;-68
2021/09/04 03:36:12;;;;;;;19.67;9.32;;;409.70;1843.20;;;;;;5053203;28;20394;-66
2021/09/04 03:38:38;;;;;;;17.30;10.20;;;409.70;1843.20;;;;;;5053995;28;20203;-69
2021/09/04 03:41:03;;;;;;;15.00;9.52;;;409.70;1843.20;;;;;;5053891;28;20025;-68
2021/09/04 03:43:29;;;;;;;16.42;9.52;;;409.60;1843.20;;;;;;5053633;28;20028;-67
2021/09/04 03:45:55;;;;;;;12.50;9.05;;;409.70;1843.20;;;;;;5053839;28;20037;-68
2021/09/04 03:48:21;;;;;;;15.55;9.60;;;409.60;1843.20;;;;;;5053740;28;20378;-68
2021/09/04 03:50:46;;;;;;;16.73;9.98;;;409.60;1843.20;;;;;;5053125;28;20025;-68
2021/09/04 03:53:12;;;;;;;16.15;10.27;;;384.90;1817.60;;;;;;5052284;28;20025;-68
2021/09/04 03:55:38;;;;;;;17.83;10.23;;;384.90;1843.20;;;;;;5053183;28;20052;-68
2021/09/04 03:58:04;;;;;;;18.00;9.85;;;384.90;1843.20;;;;;;5053632;28;20021;-68
2021/09/04 04:00:29;;;;;;;17.05;10.13;;;384.80;1843.20;;;;;;5053431;28;20065;-66
2021/09/04 04:02:55;;;;;;;18.75;10.70;;;384.80;1843.20;;;;;;5053574;28;20033;-68
2021/09/04 04:05:21;;;;;;;21.20;10.48;;;384.90;1843.20;;;;;;5053602;28;20100;-68
2021/09/04 04:07:46;;;;;;;15.80;10.27;;;384.90;1843.20;;;;;;5053764;28;20040;-68
2021/09/04 04:10:12;;;;;;;42.60;12.48;;;384.80;1843.20;;;;;;5051988;28;20036;-68
2021/09/04 04:12:39;;;;;;;21.48;10.15;;;384.90;1843.20;;;;;;5053341;28;20103;-68
2021/09/04 04:15:05;;;;;;;17.55;10.13;;;384.80;1868.80;;;;;;5052962;28;20029;-67
2021/09/04 04:17:31;;;;;;;26.80;10.82;;;384.80;1868.80;;;;;;5056526;28;20021;-68
2021/09/04 04:19:56;;;;;;;18.17;10.35;;;384.80;1868.80;;;;;;5057273;28;20367;-67
2021/09/04 04:22:22;;;;;;;16.35;9.25;;;384.80;1868.80;;;;;;5058174;28;20025;-68
2021/09/04 04:24:48;;;;;;;19.15;8.93;;;384.80;1868.80;;;;;;5056742;28;20145;-68
2021/09/04 04:27:13;;;;;;;18.80;9.45;;;384.80;1868.80;;;;;;5057417;28;20352;-68
2021/09/04 04:29:39;;;;;;;15.52;9.93;;;384.80;1868.80;;;;;;5056704;28;20021;-68
2021/09/04 04:32:05;;;;;;;18.98;10.20;;;384.80;1868.80;;;;;;5057184;28;20100;-67
2021/09/04 04:34:31;;;;;;;22.27;9.98;;;384.80;1843.20;;;;;;5057075;28;20067;-67
2021/09/04 04:36:57;;;;;;;21.95;11.02;;;384.90;1843.20;;;;;;5055689;28;20036;-68
2021/09/04 04:39:22;;;;;;;14.80;10.38;;;384.90;1843.20;;;;;;5057150;28;20029;-67
2021/09/04 04:41:48;;;;;;;20.85;11.80;;;409.60;1868.80;;;;;;5055833;28;20372;-68
2021/09/04 04:44:14;;;;;;;17.85;10.82;;;409.60;1868.80;;;;;;5057081;28;20039;-68
2021/09/04 04:46:39;;;;;;;23.45;10.13;;;409.60;1868.80;;;;;;5056948;28;20021;-68
2021/09/04 04:49:05;;;;;;;18.02;10.95;;;409.70;1868.80;;;;;;5056757;28;20104;-68
2021/09/04 04:51:31;;;;;;;17.48;10.95;;;409.70;1843.20;;;;;;5056726;28;20026;-67
2021/09/04 04:53:57;;;;;;;21.08;10.75;;;409.70;1868.80;;;;;;5056422;28;20046;-68
2021/09/04 04:56:22;;;;;;;25.10;12.05;;;409.70;1868.80;;;;;;5055617;28;20041;-68
2021/09/04 04:58:48;;;;;;;18.98;10.57;;;409.70;1868.80;;;;;;5056319;28;20029;-68
2021/09/04 05:01:13;;;;;;;17.35;10.32;;;409.70;1868.80;;;;;;5056562;28;20463;-67
2021/09/04 05:03:39;;;;;;;20.17;10.68;;;409.80;1868.80;;;;;;5056531;28;20056;-67
2021/09/04 05:06:05;;;;;;;19.70;10.90;;;409.80;1868.80;;;;;;5057086;28;20462;-67
2021/09/04 05:08:31;;;;;;;24.52;10.30;;;409.80;1843.20;;;;;;5056568;28;20032;-67
2021/09/04 05:10:56;;;;;;;17.70;10.30;;;409.90;1868.80;;;;;;5056610;28;20459;-68
2021/09/04 05:13:22;;;;;;;26.67;11.20;;;409.90;1868.80;;;;;;5056671;28;20025;-67
2021/09/04 05:15:48;;;;;;;27.23;10.65;;;409.90;1843.20;;;;;;5056221;28;20055;-67
2021/09/04 05:18:14;;;;;;;23.25;11.20;;;410.00;1843.20;;;;;;5056353;28;20021;-66
2021/09/04 05:20:42;;;;;;;14.98;10.73;;;410.00;1868.80;;;;;;5056455;28;20067;-65
2021/09/04 05:23:08;;;;;;;19.83;10.43;;;410.00;1868.80;;;;;;5056122;28;20028;-67
2021/09/04 05:25:34;;;;;;;20.90;10.82;;;410.10;1868.80;;;;;;5055893;28;20371;-66
2021/09/04 05:28:00;;;;;;;18.83;11.07;;;410.20;1868.80;;;;;;5054254;28;20028;-66
2021/09/04 05:30:25;;;;;;;18.45;10.93;;;410.20;1868.80;;;;;;5055884;28;20025;-67
2021/09/04 05:32:51;;;;;;;15.32;10.07;;;410.30;1868.80;;;;;;5055590;28;20025;-66
2021/09/04 05:35:17;;;;;;;17.98;9.60;;;410.40;1843.20;;;;;;5055639;28;20037;-66
2021/09/04 05:37:43;;;;;;;19.35;10.70;;;410.40;1868.80;;;;;;5055668;28;20025;-66
2021/09/04 05:40:09;;;;;;;20.80;10.85;;;410.50;1843.20;;;;;;5055501;28;20084;-64
2021/09/04 05:42:35;;;;;;;17.60;9.70;;;410.50;1868.80;;;;;;5055105;28;20021;-66
2021/09/04 05:45:00;;;;;;;17.10;9.55;;;435.20;1868.80;;;;;;5055087;28;20024;-64
2021/09/04 05:47:26;;;;;;;14.82;8.73;;;435.20;1868.80;;;;;;5054995;28;20505;-66
2021/09/04 05:49:52;;;;;;;14.65;9.30;;;435.20;1868.80;;;;;;5054846;28;20027;-66
2021/09/04 05:52:18;;;;;;;14.15;8.85;;;435.30;1868.80;;;;;;5054873;28;20025;-64
2021/09/04 05:54:43;;;;;;;14.90;8.77;;;435.30;1843.20;;;;;;5054656;28;20037;-66
2021/09/04 05:57:09;;;;;;;16.63;9.10;;;435.30;1868.80;;;;;;5054394;28;20359;-66
2021/09/04 05:59:35;;;;;;;14.15;8.43;;;435.40;1868.80;;;;;;5055170;28;20079;-66
2021/09/04 06:02:01;;;;;;;12.27;8.40;;;435.50;1868.80;;;;;;5055388;28;20029;-66
2021/09/04 06:04:26;;;;;;;12.55;7.72;;;435.60;1868.80;;;;;;5055282;28;20041;-66
2021/09/04 06:06:52;;;;;;;12.07;7.75;;;435.60;1843.20;;;;;;5054864;28;20029;-66
2021/09/04 06:09:18;;;;;;;9.73;7.88;;;435.70;1868.80;;;;;;5054735;28;20459;-66
2021/09/04 06:11:44;;;;;;;13.88;7.28;;;435.70;1843.20;;;;;;5055496;28;20096;-66
2021/09/04 06:14:10;;;;;;;9.15;7.30;;;435.80;1843.20;;;;;;5055031;28;20036;-66
2021/09/04 06:16:35;;;;;;;9.95;7.43;;;435.80;1843.20;;;;;;5054062;28;20498;-66
2021/09/04 06:19:01;;;;;;;12.85;8.32;;;435.80;1817.60;;;;;;5054370;28;20021;-66
2021/09/04 06:21:27;;;;;;;10.00;7.13;;;435.90;1817.60;;;;;;5054700;28;20434;-66
2021/09/04 06:23:52;;;;;;;11.73;7.18;;;435.90;1817.60;;;;;;5054591;28;20055;-66
2021/09/04 06:26:18;;;;;;;15.60;7.38;;;436.00;1817.60;;;;;;5053281;28;20474;-66
2021/09/04 06:28:44;;;;;;;10.60;6.70;;;436.00;1817.60;;;;;;5054258;28;20020;-66
2021/09/04 06:31:10;;;;;;;10.35;7.32;;;436.10;1817.60;;;;;;5054989;28;20075;-66
2021/09/04 06:33:35;;;;;;;16.33;7.00;;;436.10;1817.60;;;;;;5052799;28;20445;-66
2021/09/04 06:36:01;;;;;;;12.00;7.05;;;460.80;1843.20;;;;;;5054511;28;20060;-66
2021/09/04 06:38:27;;;;;;;8.23;6.55;;;460.80;1843.20;;;;;;5054373;28;20115;-66
2021/09/04 06:40:53;;;;;;;12.18;7.25;;;460.80;1843.20;;;;;;5054761;28;20036;-67
2021/09/04 06:43:19;;;;;;;8.93;6.78;;;460.90;1843.20;;;;;;5054851;28;20021;-67
2021/09/04 06:45:44;;;;;;;10.50;6.68;;;461.00;1843.20;;;;;;5055245;28;20049;-66
2021/09/04 06:48:10;;;;;;;10.50;7.07;;;461.00;1843.20;;;;;;5054137;28;20458;-66
2021/09/04 06:50:36;;;;;;;10.02;7.25;;;461.10;1843.20;;;;;;5054646;28;20025;-66
2021/09/04 06:53:02;;;;;;;14.23;7.53;;;461.10;1843.20;;;;;;5052977;28;20029;-66
2021/09/04 06:55:28;;;;;;;10.48;6.70;;;461.20;1868.80;;;;;;5052748;28;20045;-66
2021/09/04 06:57:54;;;;;;;12.93;7.40;;;461.30;1843.20;;;;;;5054539;28;20120;-66
2021/09/04 07:00:20;;;;;;;12.80;7.43;;;461.30;1843.20;;;;;;5052669;28;20083;-65
2021/09/04 07:02:46;;;;;;;9.80;7.28;;;461.40;1843.20;;;;;;5053846;28;20021;-67
2021/09/04 07:05:12;;;;;;;9.95;7.47;;;461.50;1843.20;;;;;;5052486;28;20033;-66
2021/09/04 07:07:37;;;;;;;11.43;7.32;;;461.60;1817.60;;;;;;5054412;28;20363;-66
2021/09/04 07:10:04;;;;;;;11.02;6.88;;;461.70;1817.60;;;;;;5052419;28;20033;-66
2021/09/04 07:12:29;;;;;;;9.38;7.28;;;486.40;1792.00;;;;;;5054438;28;20017;-66
2021/09/04 07:14:55;;;;;;;12.18;7.05;;;486.40;1766.40;;;;;;5054172;28;20459;-66
2021/09/04 07:17:21;;;;;;;7.57;6.10;;;486.50;1766.40;;;;;;5054243;28;20051;-67
2021/09/04 07:19:47;;;;;;;9.18;6.40;;;486.70;1766.40;;;;;;5053992;28;20029;-66
2021/09/04 07:22:13;;;;;;;7.72;6.18;;;486.80;1766.40;;;;;;5054030;28;20442;-66
2021/09/04 07:24:39;;;;;;;6.68;5.80;;;486.90;1740.80;;;;;;5053711;28;20033;-66
2021/09/04 07:27:05;;;;;;;11.27;6.57;;;487.10;1740.80;;;;;;5052990;28;20615;-66
2021/09/04 07:29:31;;;;;;;8.00;5.95;;;487.20;1715.20;;;;;;5054406;28;20035;-67
2021/09/04 07:31:56;;;;;;;9.18;5.63;;;487.30;1689.60;;;;;;5053299;28;20029;-67
2021/09/04 07:34:22;;;;;;;9.13;5.50;;;512.10;1689.60;;;;;;5052612;28;20036;-66
2021/09/04 07:36:48;;;;;;;6.65;5.25;;;512.30;1689.60;;;;;;5053899;28;20029;-66
2021/09/04 07:39:13;;;;;;;10.30;5.85;;;512.60;1664.00;;;;;;5053853;28;20049;-66
2021/09/04 07:41:39;;;;;;;6.63;5.18;;;512.80;1638.40;;;;;;5053981;28;20136;-66
2021/09/04 07:44:05;;;;;;;6.70;5.13;;;512.90;1638.40;;;;;;5086210;28;20033;-66
2021/09/04 07:46:31;;;;;;;7.15;5.18;;;537.70;1638.40;;;;;;5053819;28;20540;-66
2021/09/04 07:48:56;;;;;;;7.25;5.18;;;537.90;1612.80;;;;;;5053767;28;20025;-66
2021/09/04 07:51:22;;;;;;;6.53;5.28;;;538.10;1587.20;;;;;;5053759;28;20027;-66
2021/09/04 07:53:48;;;;;;;6.93;5.05;;;538.20;1587.20;;;;;;5053526;28;20025;-66
2021/09/04 07:56:14;;;;;;;6.25;4.50;;;538.40;1587.20;;;;;;5053233;28;20467;-66
2021/09/04 07:58:40;;;;;;;14.07;3.65;;;563.20;1587.20;;;;;;5052229;28;20028;-66
2021/09/04 08:01:05;;;;;;;5.38;4.18;;;563.40;1536.00;;;;;;5053491;28;20406;-65
2021/09/04 08:03:31;;;;;;;10.07;4.28;;;563.60;1510.40;;;;;;5051610;28;20079;-66
2021/09/04 08:05:57;;;;;;;9.57;4.45;;;563.80;1484.80;;;;;;5053541;28;20083;-64
2021/09/04 08:08:22;;;;;;;9.88;4.70;;;563.90;1484.80;;;;;;5053157;28;20493;-64
2021/09/04 08:10:48;;;;;;;12.73;4.20;;;564.00;1484.80;;;;;;5053330;28;20133;-66
2021/09/04 08:13:14;;;;;;;6.85;4.68;;;588.80;1433.60;;;;;;5053500;28;20082;-66
2021/09/04 08:15:40;;;;;;;6.18;4.88;;;588.90;1408.00;;;;;;5053539;28;20101;-66
2021/09/04 08:18:06;;;;;;;4.40;3.70;;;589.10;1408.00;;;;;;5053366;28;20025;-67
2021/09/04 08:20:33;;;;;;;10.18;3.95;;;589.20;1382.40;;;;;;5053519;28;20115;-66
2021/09/04 08:22:58;;;;;;;18.05;9.65;;;589.30;1356.80;;;;;;5053077;28;20025;-66
2021/09/04 08:25:24;;;;;;;28.38;18.13;;;589.40;1331.20;;;;;;5053491;28;20463;-66
2021/09/04 08:27:50;;;;;;;12.65;8.18;;;589.50;1305.60;;;;;;5053446;28;20348;-67
2021/09/04 08:30:16;;;;;;;9.32;6.63;;;589.60;1331.20;;;;;;5053172;28;20025;-66
2021/09/04 08:32:42;;;;;;;6.10;3.58;;;589.70;1331.20;;;;;;5053368;28;20021;-66
2021/09/04 08:35:08;;;;;;;5.63;4.32;;;614.50;1305.60;;;;;;5053422;28;20033;-66
2021/09/04 08:37:34;;;;;;;3.95;3.30;;;614.60;1305.60;;;;;;5053568;28;20021;-66
2021/09/04 08:40:00;;;;;;;4.50;3.47;;;614.80;1254.40;;;;;;5053169;28;20520;-66
2021/09/04 08:42:25;;;;;;;5.32;3.22;;;614.90;1228.80;;;;;;5053180;28;20017;-66
2021/09/04 08:44:51;;;;;;;7.60;3.20;;;614.90;1203.20;;;;;;5053321;28;20029;-66
2021/09/04 08:47:20;;;;;;;6.13;4.13;;;615.00;1203.20;;;;;;5053292;28;20022;-66
2021/09/04 08:49:47;;;;;;;4.50;3.42;;;615.00;1203.20;;;;;;5052734;28;20025;-66
2021/09/04 08:52:13;;;;;;;4.57;3.08;;;615.00;1203.20;;;;;;5053002;28;20463;-67
2021/09/04 08:54:39;;;;;;;4.18;3.50;;;615.00;1177.60;;;;;;5053053;28;20045;-66
2021/09/04 08:57:05;;;;;;;5.82;3.08;;;615.20;1177.60;;;;;;5051589;28;20384;-66
2021/09/04 08:59:31;;;;;;;6.15;3.25;;;615.20;1152.00;;;;;;5052865;28;20493;-66
2021/09/04 09:01:57;;;;;;;3.63;2.90;;;615.20;1152.00;;;;;;5053338;28;20024;-66
2021/09/04 09:04:24;;;;;;;3.75;3.03;;;615.30;1126.40;;;;;;5056627;28;20023;-66
2021/09/04 09:06:50;;;;;;;4.85;3.53;;;615.30;1126.40;;;;;;5056761;28;20025;-66
2021/09/04 09:09:24;;;;;;;4.97;3.10;;;640.00;1152.00;;;;;;5056732;28;20041;-66
2021/09/04 09:11:52;;;;;;;7.00;3.22;;;640.10;1100.80;;;;;;5056419;28;20033;-66
2021/09/04 09:14:19;;;;;;;11.65;3.60;;;640.10;1075.20;;;;;;5056399;28;20029;-67
2021/09/04 09:16:54;;;;;;;3.42;2.88;;;640.20;1075.20;;;;;;5055950;28;20025;-66
2021/09/04 09:19:22;;;;;;;4.90;3.17;;;640.30;1075.20;;;;;;5056371;28;20032;-69
2021/09/04 09:21:48;;;;;;;7.88;3.22;;;640.40;1075.20;;;;;;5056316;28;20532;-67
2021/09/04 09:24:17;;;;;;;3.88;2.53;;;640.50;1049.60;;;;;;5056382;28;20029;-66
2021/09/04 09:27:13;;;;;;;4.65;2.47;;;640.60;1049.60;;;;;;5054488;28;20040;-65
2021/09/04 09:29:38;;;;;;;6.57;3.35;;;640.80;972.80;;;;;;5054034;28;20029;-67
2021/09/04 09:32:09;;;;;;;4.57;2.83;;;640.90;998.40;;;;;;5055213;28;20059;-67
2021/09/04 09:34:45;;;;;;;6.47;2.67;;;665.70;1024.00;;;;;;5055806;28;20383;-67
2021/09/04 09:37:13;;;;;;;5.78;3.08;;;665.80;998.40;;;;;;5056022;28;20121;-66
2021/09/04 09:39:43;;;;;;;12.35;2.83;;;665.80;998.40;;;;;;5054490;28;20116;-66
2021/09/04 09:42:12;;;;;;;11.18;3.47;;;665.80;972.80;;;;;;5055826;28;20051;-67
2021/09/04 09:44:38;;;;;;;5.80;2.67;;;665.80;998.40;;;;;;5055744;28;20489;-66
2021/09/04 09:47:06;;;;;;;7.53;2.88;;;665.80;1024.00;;;;;;5055683;28;20036;-66
2021/09/04 09:49:37;;;;;;;8.40;3.42;;;666.00;998.40;;;;;;5054156;28;20045;-66
2021/09/04 09:52:05;;;;;;;4.50;3.00;;;666.00;998.40;;;;;;5055620;28;20021;-65
2021/09/04 09:54:32;;;;;;;12.43;3.08;;;666.00;1024.00;;;;;;5055208;28;20498;-66
2021/09/04 09:56:59;;;;;;;3.88;2.83;;;666.10;998.40;;;;;;5055711;28;20387;-66
2021/09/04 09:59:28;;;;;;;4.65;2.70;;;666.00;947.20;;;;;;5055614;28;20028;-66
2021/09/04 10:01:59;;;;;;;4.93;2.65;;;666.10;947.20;;;;;;5055627;28;20044;-67
2021/09/04 10:04:31;;;;;;;6.53;2.65;;;666.30;947.20;;;;;;5055265;28;20524;-66
2021/09/04 10:06:57;;;;;;;5.15;2.85;;;666.10;998.40;;;;;;5054925;28;20048;-66
2021/09/04 10:09:24;;;;;;;4.65;3.17;;;665.90;998.40;;;;;;5055512;28;20457;-66
2021/09/04 10:11:51;;;;;;;6.63;3.03;;;665.80;998.40;;;;;;5055426;28;20036;-66
2021/09/04 10:14:18;;;;;;;6.97;3.35;;;665.70;1024.00;;;;;;5053598;28;20029;-66
2021/09/04 10:16:45;;;;;;;4.28;3.00;;;665.70;1024.00;;;;;;5055227;28;20053;-65
2021/09/04 10:19:16;;;;;;;16.98;3.70;;;665.80;1024.00;;;;;;5053740;28;20017;-66
2021/09/04 10:21:41;;;;;;;9.43;3.42;;;665.90;998.40;;;;;;5054935;28;20064;-66
2021/09/04 10:24:08;;;;;;;8.07;3.50;;;666.00;1024.00;;;;;;5055053;28;20049;-66
2021/09/04 10:26:41;;;;;;;12.23;3.28;;;666.10;998.40;;;;;;5055156;28;20024;-66
2021/09/04 10:29:19;;;;;;;6.22;3.22;;;666.30;998.40;;;;;;5055235;28;20032;-66
2021/09/04 10:32:02;;;;;;;3.83;2.88;;;666.30;998.40;;;;;;5054743;28;20037;-67
2021/09/04 10:34:40;;;;;;;6.43;2.83;;;666.40;947.20;;;;;;5054909;28;20044;-67
2021/09/04 10:37:11;;;;;;;4.32;2.30;;;666.40;947.20;;;;;;5055007;28;20100;-66
2021/09/04 10:40:07;;;;;;;6.15;2.97;;;666.50;947.20;;;;;;5054834;28;20398;-67
2021/09/04 10:42:40;;;;;;;3.72;2.90;;;691.20;921.60;;;;;;5054485;28;20371;-67
2021/09/04 10:45:08;;;;;;;3.33;2.40;;;691.30;921.60;;;;;;5054748;28;20136;-67
2021/09/04 10:47:50;;;;;;;3.38;2.40;;;691.20;921.60;;;;;;5086636;28;20025;-67
2021/09/04 10:50:21;;;;;;;3.72;2.58;;;691.20;921.60;;;;;;5054774;28;20057;-67
2021/09/04 10:52:49;;;;;;;3.97;3.08;;;691.20;947.20;;;;;;5054377;28;20032;-67
2021/09/04 10:55:27;;;;;;;9.40;2.97;;;691.20;921.60;;;;;;5054185;28;20044;-67
2021/09/04 10:58:02;;;;;;;13.23;3.80;;;691.20;896.00;;;;;;5054316;28;20025;-67
2021/09/04 11:00:28;;;;;;;6.78;3.08;;;691.20;921.60;;;;;;5054493;28;20482;-67
2021/09/04 11:02:59;;;;;;;6.45;3.30;;;691.20;896.00;;;;;;5054256;28;20123;-66
2021/09/04 11:05:28;;;;;;;14.52;3.88;;;691.20;896.00;;;;;;5054297;28;20021;-67
2021/09/04 11:08:02;;;;;;;10.63;3.00;;;666.50;896.00;;;;;;5054066;28;20021;-66
2021/09/04 11:10:29;;;;;;;4.60;2.83;;;666.40;896.00;;;;;;5054287;28;20494;-66
2021/09/04 11:13:13;;;;;;;6.47;3.13;;;666.40;947.20;;;;;;5053488;28;20114;-66
2021/09/04 11:15:48;;;;;;;3.95;3.28;;;666.30;972.80;;;;;;5054148;28;20068;-67
2021/09/04 11:18:17;;;;;;;3.75;3.30;;;666.30;972.80;;;;;;5053853;28;20032;-66
2021/09/04 11:20:44;;;;;;;5.55;3.08;;;666.30;972.80;;;;;;5054112;28;20036;-67
2021/09/04 11:23:10;;;;;;;4.45;2.90;;;666.30;998.40;;;;;;5054083;28;20031;-66
2021/09/04 11:25:40;;;;;;;7.78;3.17;;;666.30;998.40;;;;;;5053552;28;20032;-67
2021/09/04 11:28:06;;;;;;;4.03;3.05;;;666.40;998.40;;;;;;5053983;28;20032;-67
2021/09/04 11:30:31;;;;;;;8.10;3.28;;;666.40;1024.00;;;;;;5053785;28;20021;-66
2021/09/04 11:33:13;;;;;;;6.68;3.80;;;666.40;998.40;;;;;;5086529;28;20364;-66
2021/09/04 11:35:48;;;;;;;5.20;3.90;;;666.40;998.40;;;;;;5053431;28;20387;-67
2021/09/04 11:38:14;;;;;;;5.57;4.18;;;666.30;998.40;;;;;;5053774;28;20479;-66
2021/09/04 11:40:42;;;;;;;8.77;4.00;;;666.30;1024.00;;;;;;5052108;28;20033;-66
2021/09/04 11:43:07;;;;;;;4.25;3.33;;;666.10;1024.00;;;;;;5053920;28;20029;-66
2021/09/04 11:45:33;;;;;;;7.57;3.78;;;666.00;1024.00;;;;;;5053261;28;20035;-64
2021/09/04 11:48:11;;;;;;;5.63;3.50;;;666.00;1024.00;;;;;;5053464;28;20029;-64
2021/09/04 11:50:36;;;;;;;9.10;3.63;;;665.90;1049.60;;;;;;5053749;28;20044;-65
2021/09/04 11:53:11;;;;;;;15.40;4.30;;;665.80;1049.60;;;;;;5053123;28;20041;-64
2021/09/04 11:55:37;;;;;;;7.72;3.60;;;665.70;1075.20;;;;;;5053027;28;20132;-65
2021/09/04 11:58:09;;;;;;;7.30;3.55;;;665.70;1049.60;;;;;;5051420;28;20036;-66
2021/09/04 12:00:38;;;;;;;10.02;3.53;;;665.60;1075.20;;;;;;5053343;28;20021;-66
2021/09/04 12:03:04;;;;;;;5.75;2.90;;;665.60;1049.60;;;;;;5052914;28;20044;-66
2021/09/04 12:05:39;;;;;;;5.97;3.42;;;665.70;1024.00;;;;;;5052730;28;20486;-65
2021/09/04 12:08:26;;;;;;;5.38;2.85;;;665.80;998.40;;;;;;5051126;28;20482;-65
2021/09/04 12:10:52;;;;;;;5.53;2.75;;;665.90;998.40;;;;;;5052343;28;20136;-65